sensor_id;sensor_type;location;lat;lon;timestamp;P1;durP1;ratioP1;P2;durP2;ratioP2
53545;SDS011;39432;51.902;10.844;2023-11-21T00:02:26;11.30;;;2.63;;
53545;SDS011;39432;51.902;10.844;2023-11-21T00:05:17;11.18;;;3.30;;
53545;SDS011;39432;51.902;10.844;2023-11-21T00:08:10;11.68;;;3.30;;
53545;SDS011;39432;51.902;10.844;2023-11-21T00:11:01;8.00;;;2.97;;
53545;SDS011;39432;51.902;10.844;2023-11-21T00:13:52;11.77;;;3.20;;
53545;SDS011;39432;51.902;10.844;2023-11-21T00:16:45;13.70;;;3.80;;
53545;SDS011;39432;51.902;10.844;2023-11-21T00:19:35;8.77;;;3.15;;
53545;SDS011;39432;51.902;10.844;2023-11-21T00:22:26;9.35;;;3.13;;
53545;SDS011;39432;51.902;10.844;2023-11-21T00:25:17;15.27;;;3.45;;
53545;SDS011;39432;51.902;10.844;2023-11-21T00:28:07;11.23;;;3.63;;
53545;SDS011;39432;51.902;10.844;2023-11-21T00:30:57;13.35;;;3.20;;
53545;SDS011;39432;51.902;10.844;2023-11-21T00:33:51;12.85;;;3.67;;
53545;SDS011;39432;51.902;10.844;2023-11-21T00:36:42;7.38;;;3.38;;
53545;SDS011;39432;51.902;10.844;2023-11-21T00:39:32;9.98;;;3.35;;
53545;SDS011;39432;51.902;10.844;2023-11-21T00:42:22;12.30;;;3.45;;
53545;SDS011;39432;51.902;10.844;2023-11-21T00:45:13;10.13;;;3.25;;
53545;SDS011;39432;51.902;10.844;2023-11-21T00:48:04;8.23;;;3.25;;
53545;SDS011;39432;51.902;10.844;2023-11-21T00:50:58;11.38;;;3.33;;
53545;SDS011;39432;51.902;10.844;2023-11-21T00:53:49;9.90;;;2.97;;
53545;SDS011;39432;51.902;10.844;2023-11-21T00:56:39;9.98;;;3.58;;
53545;SDS011;39432;51.902;10.844;2023-11-21T00:59:30;13.27;;;3.10;;
53545;SDS011;39432;51.902;10.844;2023-11-21T01:02:20;9.40;;;3.13;;
53545;SDS011;39432;51.902;10.844;2023-11-21T01:05:11;9.45;;;3.25;;
53545;SDS011;39432;51.902;10.844;2023-11-21T01:08:04;11.23;;;3.67;;
53545;SDS011;39432;51.902;10.844;2023-11-21T01:10:54;13.98;;;3.47;;
53545;SDS011;39432;51.902;10.844;2023-11-21T01:13:46;11.52;;;3.47;;
53545;SDS011;39432;51.902;10.844;2023-11-21T01:16:36;13.43;;;3.80;;
53545;SDS011;39432;51.902;10.844;2023-11-21T01:19:27;12.25;;;3.97;;
53545;SDS011;39432;51.902;10.844;2023-11-21T01:22:17;13.95;;;4.43;;
53545;SDS011;39432;51.902;10.844;2023-11-21T01:25:16;16.58;;;4.85;;
53545;SDS011;39432;51.902;10.844;2023-11-21T01:28:06;13.52;;;4.70;;
53545;SDS011;39432;51.902;10.844;2023-11-21T01:30:57;18.95;;;5.10;;
53545;SDS011;39432;51.902;10.844;2023-11-21T01:33:47;16.13;;;5.03;;
53545;SDS011;39432;51.902;10.844;2023-11-21T01:36:38;13.55;;;5.32;;
53545;SDS011;39432;51.902;10.844;2023-11-21T01:39:28;12.90;;;5.00;;
53545;SDS011;39432;51.902;10.844;2023-11-21T01:42:22;17.35;;;5.35;;
53545;SDS011;39432;51.902;10.844;2023-11-21T01:45:13;19.08;;;5.50;;
53545;SDS011;39432;51.902;10.844;2023-11-21T01:48:04;13.70;;;5.22;;
53545;SDS011;39432;51.902;10.844;2023-11-21T01:50:56;12.30;;;4.65;;
53545;SDS011;39432;51.902;10.844;2023-11-21T01:53:46;10.00;;;4.10;;
53545;SDS011;39432;51.902;10.844;2023-11-21T01:56:36;11.35;;;4.20;;
53545;SDS011;39432;51.902;10.844;2023-11-21T01:59:32;14.27;;;4.15;;
53545;SDS011;39432;51.902;10.844;2023-11-21T02:02:24;16.98;;;4.43;;
53545;SDS011;39432;51.902;10.844;2023-11-21T02:05:16;15.27;;;4.53;;
53545;SDS011;39432;51.902;10.844;2023-11-21T02:08:08;13.18;;;4.15;;
53545;SDS011;39432;51.902;10.844;2023-11-21T02:10:59;16.50;;;4.22;;
53545;SDS011;39432;51.902;10.844;2023-11-21T02:13:49;11.50;;;4.57;;
53545;SDS011;39432;51.902;10.844;2023-11-21T02:16:43;16.52;;;4.00;;
53545;SDS011;39432;51.902;10.844;2023-11-21T02:19:36;21.17;;;3.95;;
53545;SDS011;39432;51.902;10.844;2023-11-21T02:22:27;13.60;;;4.10;;
53545;SDS011;39432;51.902;10.844;2023-11-21T02:25:25;13.10;;;3.60;;
53545;SDS011;39432;51.902;10.844;2023-11-21T02:28:17;15.43;;;4.10;;
53545;SDS011;39432;51.902;10.844;2023-11-21T02:31:13;11.57;;;2.75;;
53545;SDS011;39432;51.902;10.844;2023-11-21T02:34:04;12.45;;;3.65;;
53545;SDS011;39432;51.902;10.844;2023-11-21T02:36:54;11.63;;;3.80;;
53545;SDS011;39432;51.902;10.844;2023-11-21T02:39:45;11.20;;;3.92;;
53545;SDS011;39432;51.902;10.844;2023-11-21T02:42:38;12.80;;;3.78;;
53545;SDS011;39432;51.902;10.844;2023-11-21T02:45:29;16.88;;;4.13;;
53545;SDS011;39432;51.902;10.844;2023-11-21T02:48:19;13.35;;;4.05;;
53545;SDS011;39432;51.902;10.844;2023-11-21T02:51:11;11.98;;;3.85;;
53545;SDS011;39432;51.902;10.844;2023-11-21T02:54:03;20.70;;;4.18;;
53545;SDS011;39432;51.902;10.844;2023-11-21T02:56:55;10.55;;;4.05;;
53545;SDS011;39432;51.902;10.844;2023-11-21T02:59:48;14.98;;;3.70;;
53545;SDS011;39432;51.902;10.844;2023-11-21T03:02:39;16.65;;;3.92;;
53545;SDS011;39432;51.902;10.844;2023-11-21T03:05:30;17.08;;;4.90;;
53545;SDS011;39432;51.902;10.844;2023-11-21T03:08:22;18.67;;;4.57;;
53545;SDS011;39432;51.902;10.844;2023-11-21T03:11:13;18.70;;;5.20;;
53545;SDS011;39432;51.902;10.844;2023-11-21T03:14:04;14.48;;;4.57;;
53545;SDS011;39432;51.902;10.844;2023-11-21T03:16:57;12.70;;;3.95;;
53545;SDS011;39432;51.902;10.844;2023-11-21T03:19:48;12.43;;;4.32;;
53545;SDS011;39432;51.902;10.844;2023-11-21T03:22:40;13.02;;;4.22;;
53545;SDS011;39432;51.902;10.844;2023-11-21T03:25:30;15.30;;;4.78;;
53545;SDS011;39432;51.902;10.844;2023-11-21T03:28:21;19.77;;;4.60;;
53545;SDS011;39432;51.902;10.844;2023-11-21T03:31:11;19.73;;;5.03;;
53545;SDS011;39432;51.902;10.844;2023-11-21T03:34:09;10.70;;;4.38;;
53545;SDS011;39432;51.902;10.844;2023-11-21T03:37:05;15.77;;;4.97;;
53545;SDS011;39432;51.902;10.844;2023-11-21T03:39:56;14.55;;;4.60;;
53545;SDS011;39432;51.902;10.844;2023-11-21T03:42:46;10.50;;;4.45;;
53545;SDS011;39432;51.902;10.844;2023-11-21T03:45:40;18.80;;;5.18;;
53545;SDS011;39432;51.902;10.844;2023-11-21T03:48:30;16.40;;;4.80;;
53545;SDS011;39432;51.902;10.844;2023-11-21T03:51:23;15.35;;;5.00;;
53545;SDS011;39432;51.902;10.844;2023-11-21T03:54:14;12.82;;;4.38;;
53545;SDS011;39432;51.902;10.844;2023-11-21T03:57:05;15.35;;;4.93;;
53545;SDS011;39432;51.902;10.844;2023-11-21T03:59:56;19.05;;;5.55;;
53545;SDS011;39432;51.902;10.844;2023-11-21T04:02:46;14.88;;;4.30;;
53545;SDS011;39432;51.902;10.844;2023-11-21T04:05:39;10.45;;;4.40;;
53545;SDS011;39432;51.902;10.844;2023-11-21T04:08:32;17.55;;;5.78;;
53545;SDS011;39432;51.902;10.844;2023-11-21T04:11:22;11.55;;;5.03;;
53545;SDS011;39432;51.902;10.844;2023-11-21T04:14:13;14.35;;;4.50;;
53545;SDS011;39432;51.902;10.844;2023-11-21T04:17:04;16.25;;;4.80;;
53545;SDS011;39432;51.902;10.844;2023-11-21T04:19:54;17.38;;;5.57;;
53545;SDS011;39432;51.902;10.844;2023-11-21T04:22:44;17.90;;;4.97;;
53545;SDS011;39432;51.902;10.844;2023-11-21T04:25:38;14.65;;;5.28;;
53545;SDS011;39432;51.902;10.844;2023-11-21T04:28:29;12.88;;;5.13;;
53545;SDS011;39432;51.902;10.844;2023-11-21T04:31:19;18.58;;;5.28;;
53545;SDS011;39432;51.902;10.844;2023-11-21T04:34:10;14.45;;;5.78;;
53545;SDS011;39432;51.902;10.844;2023-11-21T04:37:00;15.55;;;5.20;;
53545;SDS011;39432;51.902;10.844;2023-11-21T04:39:53;11.48;;;4.45;;
53545;SDS011;39432;51.902;10.844;2023-11-21T04:42:46;18.88;;;5.85;;
53545;SDS011;39432;51.902;10.844;2023-11-21T04:45:37;11.98;;;5.10;;
53545;SDS011;39432;51.902;10.844;2023-11-21T04:48:28;14.60;;;6.45;;
53545;SDS011;39432;51.902;10.844;2023-11-21T04:51:18;15.10;;;6.05;;
53545;SDS011;39432;51.902;10.844;2023-11-21T04:54:09;16.48;;;7.07;;
53545;SDS011;39432;51.902;10.844;2023-11-21T04:56:59;19.45;;;6.53;;
53545;SDS011;39432;51.902;10.844;2023-11-21T04:59:54;19.10;;;7.57;;
53545;SDS011;39432;51.902;10.844;2023-11-21T05:02:45;18.20;;;6.70;;
53545;SDS011;39432;51.902;10.844;2023-11-21T05:05:35;13.90;;;6.53;;
53545;SDS011;39432;51.902;10.844;2023-11-21T05:08:26;17.58;;;7.13;;
53545;SDS011;39432;51.902;10.844;2023-11-21T05:11:23;19.42;;;7.15;;
53545;SDS011;39432;51.902;10.844;2023-11-21T05:14:14;16.52;;;7.43;;
53545;SDS011;39432;51.902;10.844;2023-11-21T05:17:08;22.10;;;8.15;;
53545;SDS011;39432;51.902;10.844;2023-11-21T05:19:59;20.90;;;7.85;;
53545;SDS011;39432;51.902;10.844;2023-11-21T05:22:50;21.95;;;8.00;;
53545;SDS011;39432;51.902;10.844;2023-11-21T05:25:41;23.27;;;8.57;;
53545;SDS011;39432;51.902;10.844;2023-11-21T05:28:32;22.90;;;8.35;;
53545;SDS011;39432;51.902;10.844;2023-11-21T05:31:24;19.92;;;8.93;;
53545;SDS011;39432;51.902;10.844;2023-11-21T05:34:17;17.73;;;7.95;;
53545;SDS011;39432;51.902;10.844;2023-11-21T05:37:08;25.80;;;9.55;;
53545;SDS011;39432;51.902;10.844;2023-11-21T05:39:58;18.48;;;8.68;;
53545;SDS011;39432;51.902;10.844;2023-11-21T05:42:53;18.50;;;9.30;;
53545;SDS011;39432;51.902;10.844;2023-11-21T05:45:43;27.50;;;9.60;;
53545;SDS011;39432;51.902;10.844;2023-11-21T05:48:33;24.85;;;10.35;;
53545;SDS011;39432;51.902;10.844;2023-11-21T05:51:27;21.10;;;9.98;;
53545;SDS011;39432;51.902;10.844;2023-11-21T05:54:17;26.83;;;11.50;;
53545;SDS011;39432;51.902;10.844;2023-11-21T05:57:07;25.33;;;10.90;;
53545;SDS011;39432;51.902;10.844;2023-11-21T05:59:58;23.45;;;11.27;;
53545;SDS011;39432;51.902;10.844;2023-11-21T06:02:51;30.20;;;11.48;;
53545;SDS011;39432;51.902;10.844;2023-11-21T06:05:43;34.15;;;11.93;;
53545;SDS011;39432;51.902;10.844;2023-11-21T06:08:35;31.88;;;11.48;;
53545;SDS011;39432;51.902;10.844;2023-11-21T06:11:26;27.13;;;11.93;;
53545;SDS011;39432;51.902;10.844;2023-11-21T06:14:16;34.38;;;12.82;;
53545;SDS011;39432;51.902;10.844;2023-11-21T06:17:09;32.03;;;13.88;;
53545;SDS011;39432;51.902;10.844;2023-11-21T06:20:00;23.52;;;12.77;;
53545;SDS011;39432;51.902;10.844;2023-11-21T06:22:56;27.40;;;12.07;;
53545;SDS011;39432;51.902;10.844;2023-11-21T06:25:53;24.42;;;11.60;;
53545;SDS011;39432;51.902;10.844;2023-11-21T06:28:44;24.38;;;12.38;;
53545;SDS011;39432;51.902;10.844;2023-11-21T06:31:35;25.52;;;12.85;;
53545;SDS011;39432;51.902;10.844;2023-11-21T06:34:25;29.17;;;12.77;;
53545;SDS011;39432;51.902;10.844;2023-11-21T06:37:16;27.52;;;12.68;;
53545;SDS011;39432;51.902;10.844;2023-11-21T06:40:08;25.17;;;12.27;;
53545;SDS011;39432;51.902;10.844;2023-11-21T06:43:03;37.50;;;13.73;;
53545;SDS011;39432;51.902;10.844;2023-11-21T06:45:54;34.63;;;14.27;;
53545;SDS011;39432;51.902;10.844;2023-11-21T06:48:44;37.83;;;13.48;;
53545;SDS011;39432;51.902;10.844;2023-11-21T06:51:36;37.22;;;14.35;;
53545;SDS011;39432;51.902;10.844;2023-11-21T06:54:27;32.10;;;12.73;;
53545;SDS011;39432;51.902;10.844;2023-11-21T06:57:17;30.38;;;14.20;;
53545;SDS011;39432;51.902;10.844;2023-11-21T07:00:11;38.88;;;14.85;;
53545;SDS011;39432;51.902;10.844;2023-11-21T07:03:03;26.98;;;12.45;;
53545;SDS011;39432;51.902;10.844;2023-11-21T07:05:54;26.27;;;13.55;;
53545;SDS011;39432;51.902;10.844;2023-11-21T07:08:44;31.48;;;13.52;;
53545;SDS011;39432;51.902;10.844;2023-11-21T07:11:35;35.35;;;14.02;;
53545;SDS011;39432;51.902;10.844;2023-11-21T07:14:29;27.73;;;12.55;;
53545;SDS011;39432;51.902;10.844;2023-11-21T07:17:22;35.03;;;14.65;;
53545;SDS011;39432;51.902;10.844;2023-11-21T07:20:13;28.88;;;12.55;;
53545;SDS011;39432;51.902;10.844;2023-11-21T07:23:04;32.03;;;13.43;;
53545;SDS011;39432;51.902;10.844;2023-11-21T07:25:55;24.35;;;13.30;;
53545;SDS011;39432;51.902;10.844;2023-11-21T07:28:46;23.52;;;12.15;;
53545;SDS011;39432;51.902;10.844;2023-11-21T07:31:36;29.27;;;14.00;;
53545;SDS011;39432;51.902;10.844;2023-11-21T07:34:31;33.65;;;17.10;;
53545;SDS011;39432;51.902;10.844;2023-11-21T07:37:21;30.83;;;14.95;;
53545;SDS011;39432;51.902;10.844;2023-11-21T07:40:13;24.30;;;12.90;;
53545;SDS011;39432;51.902;10.844;2023-11-21T07:43:04;22.10;;;12.73;;
53545;SDS011;39432;51.902;10.844;2023-11-21T07:45:55;21.48;;;12.50;;
53545;SDS011;39432;51.902;10.844;2023-11-21T07:48:45;20.40;;;10.90;;
53545;SDS011;39432;51.902;10.844;2023-11-21T07:51:38;17.25;;;9.95;;
53545;SDS011;39432;51.902;10.844;2023-11-21T07:54:28;20.88;;;10.50;;
53545;SDS011;39432;51.902;10.844;2023-11-21T07:57:19;15.52;;;8.73;;
53545;SDS011;39432;51.902;10.844;2023-11-21T08:00:10;21.83;;;10.60;;
53545;SDS011;39432;51.902;10.844;2023-11-21T08:03:02;15.50;;;9.50;;
53545;SDS011;39432;51.902;10.844;2023-11-21T08:05:53;13.85;;;8.32;;
53545;SDS011;39432;51.902;10.844;2023-11-21T08:08:47;13.77;;;7.97;;
53545;SDS011;39432;51.902;10.844;2023-11-21T08:11:38;4.15;;;2.40;;
53545;SDS011;39432;51.902;10.844;2023-11-21T08:14:29;3.47;;;1.95;;
53545;SDS011;39432;51.902;10.844;2023-11-21T08:17:19;5.65;;;2.30;;
53545;SDS011;39432;51.902;10.844;2023-11-21T08:20:11;6.15;;;2.90;;
53545;SDS011;39432;51.902;10.844;2023-11-21T08:23:03;6.20;;;3.50;;
53545;SDS011;39432;51.902;10.844;2023-11-21T08:25:56;7.57;;;3.88;;
53545;SDS011;39432;51.902;10.844;2023-11-21T08:28:49;6.68;;;3.97;;
53545;SDS011;39432;51.902;10.844;2023-11-21T08:31:40;6.40;;;4.10;;
53545;SDS011;39432;51.902;10.844;2023-11-21T08:34:30;7.13;;;4.70;;
53545;SDS011;39432;51.902;10.844;2023-11-21T08:37:21;9.43;;;6.05;;
53545;SDS011;39432;51.902;10.844;2023-11-21T08:40:12;11.93;;;5.85;;
53545;SDS011;39432;51.902;10.844;2023-11-21T08:43:07;16.30;;;6.35;;
53545;SDS011;39432;51.902;10.844;2023-11-21T08:45:59;11.43;;;6.40;;
53545;SDS011;39432;51.902;10.844;2023-11-21T08:48:50;16.13;;;9.05;;
53545;SDS011;39432;51.902;10.844;2023-11-21T08:51:41;10.73;;;6.38;;
53545;SDS011;39432;51.902;10.844;2023-11-21T08:54:31;11.95;;;6.40;;
53545;SDS011;39432;51.902;10.844;2023-11-21T08:57:22;12.00;;;6.75;;
53545;SDS011;39432;51.902;10.844;2023-11-21T09:00:15;10.85;;;6.53;;
53545;SDS011;39432;51.902;10.844;2023-11-21T09:03:06;10.57;;;5.80;;
53545;SDS011;39432;51.902;10.844;2023-11-21T09:05:57;12.15;;;7.82;;
53545;SDS011;39432;51.902;10.844;2023-11-21T09:08:47;16.35;;;9.65;;
53545;SDS011;39432;51.902;10.844;2023-11-21T09:11:38;17.08;;;10.50;;
53545;SDS011;39432;51.902;10.844;2023-11-21T09:14:28;19.77;;;11.70;;
53545;SDS011;39432;51.902;10.844;2023-11-21T09:17:21;19.98;;;12.63;;
53545;SDS011;39432;51.902;10.844;2023-11-21T09:20:12;17.27;;;11.02;;
53545;SDS011;39432;51.902;10.844;2023-11-21T09:23:03;19.73;;;12.63;;
53545;SDS011;39432;51.902;10.844;2023-11-21T09:25:54;19.23;;;12.07;;
53545;SDS011;39432;51.902;10.844;2023-11-21T09:28:47;22.58;;;13.32;;
53545;SDS011;39432;51.902;10.844;2023-11-21T09:31:37;21.48;;;12.32;;
53545;SDS011;39432;51.902;10.844;2023-11-21T09:34:32;21.02;;;12.30;;
53545;SDS011;39432;51.902;10.844;2023-11-21T09:37:25;23.58;;;12.43;;
53545;SDS011;39432;51.902;10.844;2023-11-21T09:40:16;20.50;;;11.43;;
53545;SDS011;39432;51.902;10.844;2023-11-21T09:43:14;21.23;;;11.73;;
53545;SDS011;39432;51.902;10.844;2023-11-21T09:46:07;23.60;;;12.60;;
53545;SDS011;39432;51.902;10.844;2023-11-21T09:51:58;18.33;;;11.18;;
53545;SDS011;39432;51.902;10.844;2023-11-21T09:54:51;15.88;;;10.18;;
53545;SDS011;39432;51.902;10.844;2023-11-21T09:57:44;15.50;;;10.07;;
53545;SDS011;39432;51.902;10.844;2023-11-21T10:00:35;20.23;;;11.32;;
53545;SDS011;39432;51.902;10.844;2023-11-21T10:03:26;17.13;;;11.40;;
53545;SDS011;39432;51.902;10.844;2023-11-21T10:06:17;18.13;;;10.63;;
53545;SDS011;39432;51.902;10.844;2023-11-21T10:09:10;16.05;;;10.60;;
53545;SDS011;39432;51.902;10.844;2023-11-21T10:12:04;17.75;;;10.43;;
53545;SDS011;39432;51.902;10.844;2023-11-21T10:14:57;14.10;;;9.13;;
53545;SDS011;39432;51.902;10.844;2023-11-21T10:17:50;13.13;;;8.43;;
53545;SDS011;39432;51.902;10.844;2023-11-21T10:20:43;15.98;;;9.20;;
53545;SDS011;39432;51.902;10.844;2023-11-21T10:23:40;13.20;;;7.75;;
53545;SDS011;39432;51.902;10.844;2023-11-21T10:26:33;12.30;;;8.18;;
53545;SDS011;39432;51.902;10.844;2023-11-21T10:29:39;10.23;;;7.22;;
53545;SDS011;39432;51.902;10.844;2023-11-21T10:32:29;10.40;;;7.00;;
53545;SDS011;39432;51.902;10.844;2023-11-21T10:35:20;11.73;;;6.68;;
53545;SDS011;39432;51.902;10.844;2023-11-21T10:38:11;10.52;;;6.78;;
53545;SDS011;39432;51.902;10.844;2023-11-21T10:41:01;10.38;;;6.95;;
53545;SDS011;39432;51.902;10.844;2023-11-21T10:43:57;13.13;;;7.90;;
53545;SDS011;39432;51.902;10.844;2023-11-21T10:46:48;11.93;;;8.38;;
53545;SDS011;39432;51.902;10.844;2023-11-21T10:49:41;13.95;;;8.32;;
53545;SDS011;39432;51.902;10.844;2023-11-21T10:52:32;11.30;;;7.03;;
53545;SDS011;39432;51.902;10.844;2023-11-21T10:55:23;13.77;;;8.68;;
53545;SDS011;39432;51.902;10.844;2023-11-21T10:58:13;14.65;;;8.93;;
53545;SDS011;39432;51.902;10.844;2023-11-21T11:01:07;11.77;;;7.45;;
53545;SDS011;39432;51.902;10.844;2023-11-21T11:03:59;9.73;;;6.90;;
53545;SDS011;39432;51.902;10.844;2023-11-21T11:06:55;11.48;;;7.68;;
53545;SDS011;39432;51.902;10.844;2023-11-21T11:09:48;11.90;;;7.13;;
53545;SDS011;39432;51.902;10.844;2023-11-21T11:12:39;12.77;;;7.10;;
53545;SDS011;39432;51.902;10.844;2023-11-21T11:15:29;11.23;;;6.60;;
53545;SDS011;39432;51.902;10.844;2023-11-21T11:18:23;10.55;;;5.93;;
53545;SDS011;39432;51.902;10.844;2023-11-21T11:21:16;9.45;;;6.15;;
53545;SDS011;39432;51.902;10.844;2023-11-21T11:24:20;9.15;;;6.13;;
53545;SDS011;39432;51.902;10.844;2023-11-21T11:27:25;18.85;;;8.70;;
53545;SDS011;39432;51.902;10.844;2023-11-21T11:30:27;11.80;;;7.22;;
53545;SDS011;39432;51.902;10.844;2023-11-21T11:33:33;10.70;;;7.57;;
53545;SDS011;39432;51.902;10.844;2023-11-21T11:36:29;9.57;;;6.78;;
53545;SDS011;39432;51.902;10.844;2023-11-21T11:39:34;10.85;;;7.03;;
53545;SDS011;39432;51.902;10.844;2023-11-21T11:42:26;11.75;;;7.28;;
53545;SDS011;39432;51.902;10.844;2023-11-21T11:45:17;11.30;;;7.30;;
53545;SDS011;39432;51.902;10.844;2023-11-21T11:48:10;9.77;;;6.53;;
53545;SDS011;39432;51.902;10.844;2023-11-21T11:51:09;10.02;;;7.13;;
53545;SDS011;39432;51.902;10.844;2023-11-21T11:54:01;10.43;;;6.60;;
53545;SDS011;39432;51.902;10.844;2023-11-21T11:56:54;9.93;;;6.65;;
53545;SDS011;39432;51.902;10.844;2023-11-21T12:03:04;12.80;;;8.05;;
53545;SDS011;39432;51.902;10.844;2023-11-21T12:05:57;16.48;;;8.98;;
53545;SDS011;39432;51.902;10.844;2023-11-21T12:08:50;23.60;;;11.70;;
53545;SDS011;39432;51.902;10.844;2023-11-21T12:11:41;18.38;;;11.05;;
53545;SDS011;39432;51.902;10.844;2023-11-21T12:14:32;11.90;;;6.35;;
53545;SDS011;39432;51.902;10.844;2023-11-21T12:17:22;11.38;;;6.35;;
53545;SDS011;39432;51.902;10.844;2023-11-21T12:20:13;9.35;;;6.35;;
53545;SDS011;39432;51.902;10.844;2023-11-21T12:23:05;8.88;;;6.18;;
53545;SDS011;39432;51.902;10.844;2023-11-21T12:25:59;13.18;;;5.97;;
53545;SDS011;39432;51.902;10.844;2023-11-21T12:28:51;13.38;;;6.55;;
53545;SDS011;39432;51.902;10.844;2023-11-21T12:31:43;12.35;;;6.63;;
53545;SDS011;39432;51.902;10.844;2023-11-21T12:34:34;11.88;;;6.70;;
53545;SDS011;39432;51.902;10.844;2023-11-21T12:37:26;11.10;;;7.25;;
53545;SDS011;39432;51.902;10.844;2023-11-21T12:40:16;10.48;;;6.65;;
53545;SDS011;39432;51.902;10.844;2023-11-21T12:43:10;11.73;;;7.30;;
53545;SDS011;39432;51.902;10.844;2023-11-21T12:46:04;8.65;;;6.35;;
53545;SDS011;39432;51.902;10.844;2023-11-21T12:48:56;9.47;;;5.67;;
53545;SDS011;39432;51.902;10.844;2023-11-21T12:51:47;9.25;;;5.95;;
53545;SDS011;39432;51.902;10.844;2023-11-21T12:54:38;10.52;;;6.35;;
53545;SDS011;39432;51.902;10.844;2023-11-21T12:57:29;9.27;;;6.57;;
53545;SDS011;39432;51.902;10.844;2023-11-21T13:00:28;9.73;;;5.75;;
53545;SDS011;39432;51.902;10.844;2023-11-21T13:03:24;9.30;;;6.15;;
53545;SDS011;39432;51.902;10.844;2023-11-21T13:06:17;9.65;;;6.53;;
53545;SDS011;39432;51.902;10.844;2023-11-21T13:09:12;10.85;;;6.05;;
53545;SDS011;39432;51.902;10.844;2023-11-21T13:12:09;10.73;;;5.63;;
53545;SDS011;39432;51.902;10.844;2023-11-21T13:15:03;9.77;;;5.88;;
53545;SDS011;39432;51.902;10.844;2023-11-21T13:17:57;10.75;;;5.10;;
53545;SDS011;39432;51.902;10.844;2023-11-21T13:20:48;6.43;;;4.70;;
53545;SDS011;39432;51.902;10.844;2023-11-21T13:23:39;15.85;;;5.72;;
53545;SDS011;39432;51.902;10.844;2023-11-21T13:26:33;8.50;;;4.70;;
53545;SDS011;39432;51.902;10.844;2023-11-21T13:29:24;8.73;;;5.40;;
53545;SDS011;39432;51.902;10.844;2023-11-21T13:32:14;7.78;;;5.18;;
53545;SDS011;39432;51.902;10.844;2023-11-21T13:35:10;8.18;;;5.30;;
53545;SDS011;39432;51.902;10.844;2023-11-21T13:38:08;7.38;;;4.88;;
53545;SDS011;39432;51.902;10.844;2023-11-21T13:40:59;10.50;;;5.60;;
53545;SDS011;39432;51.902;10.844;2023-11-21T13:43:54;8.35;;;5.70;;
53545;SDS011;39432;51.902;10.844;2023-11-21T13:46:51;9.55;;;5.57;;
53545;SDS011;39432;51.902;10.844;2023-11-21T13:49:44;9.82;;;5.30;;
53545;SDS011;39432;51.902;10.844;2023-11-21T13:52:37;7.50;;;4.45;;
53545;SDS011;39432;51.902;10.844;2023-11-21T13:55:28;5.60;;;3.92;;
53545;SDS011;39432;51.902;10.844;2023-11-21T13:58:18;8.80;;;4.13;;
53545;SDS011;39432;51.902;10.844;2023-11-21T14:01:12;6.13;;;3.80;;
53545;SDS011;39432;51.902;10.844;2023-11-21T14:04:22;7.18;;;3.90;;
53545;SDS011;39432;51.902;10.844;2023-11-21T14:07:34;11.48;;;4.60;;
53545;SDS011;39432;51.902;10.844;2023-11-21T14:10:29;9.05;;;3.80;;
53545;SDS011;39432;51.902;10.844;2023-11-21T14:13:27;7.45;;;3.90;;
53545;SDS011;39432;51.902;10.844;2023-11-21T14:16:18;7.10;;;3.95;;
53545;SDS011;39432;51.902;10.844;2023-11-21T14:19:09;6.18;;;3.60;;
53545;SDS011;39432;51.902;10.844;2023-11-21T14:22:03;6.22;;;3.53;;
53545;SDS011;39432;51.902;10.844;2023-11-21T14:24:56;7.30;;;3.80;;
53545;SDS011;39432;51.902;10.844;2023-11-21T14:27:53;5.97;;;3.38;;
53545;SDS011;39432;51.902;10.844;2023-11-21T14:30:44;4.95;;;3.05;;
53545;SDS011;39432;51.902;10.844;2023-11-21T14:33:34;22.60;;;7.47;;
53545;SDS011;39432;51.902;10.844;2023-11-21T14:36:25;6.53;;;3.58;;
53545;SDS011;39432;51.902;10.844;2023-11-21T14:39:15;6.68;;;3.80;;
53545;SDS011;39432;51.902;10.844;2023-11-21T14:42:11;7.07;;;3.20;;
53545;SDS011;39432;51.902;10.844;2023-11-21T14:45:05;5.28;;;3.70;;
53545;SDS011;39432;51.902;10.844;2023-11-21T14:47:59;5.97;;;3.13;;
53545;SDS011;39432;51.902;10.844;2023-11-21T14:51:04;5.18;;;3.30;;
53545;SDS011;39432;51.902;10.844;2023-11-21T14:54:07;6.63;;;3.25;;
53545;SDS011;39432;51.902;10.844;2023-11-21T14:56:59;7.07;;;4.07;;
53545;SDS011;39432;51.902;10.844;2023-11-21T14:59:47;13.90;;;6.07;;
53545;SDS011;39432;51.902;10.844;2023-11-21T15:02:42;8.30;;;4.30;;
53545;SDS011;39432;51.902;10.844;2023-11-21T15:05:36;6.35;;;2.75;;
53545;SDS011;39432;51.902;10.844;2023-11-21T15:08:27;3.53;;;2.60;;
53545;SDS011;39432;51.902;10.844;2023-11-21T15:11:19;5.38;;;2.78;;
53545;SDS011;39432;51.902;10.844;2023-11-21T15:14:17;5.28;;;2.65;;
53545;SDS011;39432;51.902;10.844;2023-11-21T15:17:12;5.50;;;3.30;;
53545;SDS011;39432;51.902;10.844;2023-11-21T15:20:13;5.32;;;2.90;;
53545;SDS011;39432;51.902;10.844;2023-11-21T15:23:06;10.82;;;4.95;;
53545;SDS011;39432;51.902;10.844;2023-11-21T15:25:57;7.18;;;3.05;;
53545;SDS011;39432;51.902;10.844;2023-11-21T15:28:48;5.78;;;2.85;;
53545;SDS011;39432;51.902;10.844;2023-11-21T15:31:39;4.50;;;2.95;;
53545;SDS011;39432;51.902;10.844;2023-11-21T15:34:36;4.88;;;2.85;;
53545;SDS011;39432;51.902;10.844;2023-11-21T15:37:30;4.35;;;2.97;;
53545;SDS011;39432;51.902;10.844;2023-11-21T15:40:20;4.90;;;2.75;;
53545;SDS011;39432;51.902;10.844;2023-11-21T15:43:11;3.55;;;2.33;;
53545;SDS011;39432;51.902;10.844;2023-11-21T15:46:02;4.35;;;2.38;;
53545;SDS011;39432;51.902;10.844;2023-11-21T15:48:54;4.07;;;2.78;;
53545;SDS011;39432;51.902;10.844;2023-11-21T15:51:45;6.55;;;2.80;;
53545;SDS011;39432;51.902;10.844;2023-11-21T15:54:42;4.88;;;2.65;;
53545;SDS011;39432;51.902;10.844;2023-11-21T15:57:33;4.93;;;2.83;;
53545;SDS011;39432;51.902;10.844;2023-11-21T16:00:24;5.20;;;2.67;;
53545;SDS011;39432;51.902;10.844;2023-11-21T16:03:14;8.65;;;3.50;;
53545;SDS011;39432;51.902;10.844;2023-11-21T16:06:05;7.50;;;3.75;;
53545;SDS011;39432;51.902;10.844;2023-11-21T16:08:58;16.85;;;9.98;;
53545;SDS011;39432;51.902;10.844;2023-11-21T16:11:51;18.88;;;5.82;;
53545;SDS011;39432;51.902;10.844;2023-11-21T16:14:47;8.43;;;4.93;;
53545;SDS011;39432;51.902;10.844;2023-11-21T16:17:38;6.80;;;3.92;;
53545;SDS011;39432;51.902;10.844;2023-11-21T16:20:29;4.80;;;3.00;;
53545;SDS011;39432;51.902;10.844;2023-11-21T16:23:19;7.85;;;4.05;;
53545;SDS011;39432;51.902;10.844;2023-11-21T16:26:09;7.38;;;3.63;;
53545;SDS011;39432;51.902;10.844;2023-11-21T16:29:03;7.55;;;3.72;;
53545;SDS011;39432;51.902;10.844;2023-11-21T16:31:54;6.53;;;3.40;;
53545;SDS011;39432;51.902;10.844;2023-11-21T16:34:45;5.93;;;3.33;;
53545;SDS011;39432;51.902;10.844;2023-11-21T16:37:36;6.25;;;3.65;;
53545;SDS011;39432;51.902;10.844;2023-11-21T16:40:26;8.98;;;3.97;;
53545;SDS011;39432;51.902;10.844;2023-11-21T16:43:16;9.07;;;4.57;;
53545;SDS011;39432;51.902;10.844;2023-11-21T16:46:09;10.10;;;5.10;;
53545;SDS011;39432;51.902;10.844;2023-11-21T16:49:02;8.93;;;4.35;;
53545;SDS011;39432;51.902;10.844;2023-11-21T16:51:52;7.63;;;4.18;;
53545;SDS011;39432;51.902;10.844;2023-11-21T16:54:42;8.10;;;4.45;;
53545;SDS011;39432;51.902;10.844;2023-11-21T16:57:33;6.10;;;3.78;;